createdAt,value
2022-08-11T00:02:28.082Z,79.12
2022-08-11T00:04:59.111Z,79.66
2022-08-11T00:07:28.350Z,79.71
2022-08-11T00:09:57.392Z,79.72
2022-08-11T00:12:27.152Z,79.88
2022-08-11T00:15:01.021Z,79.52
2022-08-11T00:17:31.906Z,79.40
2022-08-11T00:20:11.883Z,78.97
2022-08-11T00:22:47.825Z,79.01
2022-08-11T00:25:18.782Z,79.72
2022-08-11T00:27:48.330Z,79.48
2022-08-11T00:30:17.619Z,79.69
2022-08-11T00:32:52.670Z,79.70
2022-08-11T00:35:54.099Z,80.42
2022-08-11T00:38:18.352Z,80.46
2022-08-11T00:40:56.390Z,80.70
2022-08-11T00:43:39.658Z,81.29
2022-08-11T00:46:16.360Z,81.16
2022-08-11T00:48:56.671Z,81.86
2022-08-11T00:52:04.878Z,82.33
2022-08-11T00:55:00.197Z,83.04
2022-08-11T00:58:11.464Z,83.47
2022-08-11T01:01:04.599Z,84.33
2022-08-11T01:03:55.536Z,84.65
2022-08-11T01:06:49.623Z,85.18
2022-08-11T01:09:34.468Z,85.66
2022-08-11T01:12:37.221Z,85.84
2022-08-11T01:15:55.830Z,86.08
2022-08-11T01:18:59.636Z,85.87
2022-08-11T01:22:18.451Z,86.84
2022-08-11T01:25:24.921Z,87.19
2022-08-11T01:28:33.082Z,88.18
2022-08-11T01:31:41.499Z,88.74
2022-08-11T01:34:49.215Z,89.92
2022-08-11T01:38:00.657Z,90.22
2022-08-11T01:40:54.900Z,90.49
2022-08-11T01:44:13.435Z,90.87
2022-08-11T01:46:51.495Z,91.29
2022-08-11T01:50:09.830Z,91.46
2022-08-11T01:52:30.386Z,91.79
2022-08-11T01:55:20.671Z,91.84
2022-08-11T01:57:58.975Z,92.26
2022-08-11T02:00:33.167Z,92.02
2022-08-11T02:03:13.737Z,92.24
2022-08-11T02:06:01.991Z,92.90
2022-08-11T02:08:49.533Z,92.42
2022-08-11T02:11:35.492Z,91.93
2022-08-11T02:14:21.570Z,92.21
2022-08-11T02:17:01.586Z,92.81
2022-08-11T02:20:00.876Z,93.15
2022-08-11T02:22:55.290Z,93.21
2022-08-11T02:25:31.685Z,93.43
2022-08-11T02:28:13.276Z,93.93
2022-08-11T02:32:04.763Z,94.62
2022-08-11T02:34:12.925Z,94.14
2022-08-11T02:36:52.004Z,94.24
2022-08-11T02:39:25.503Z,94.80
2022-08-11T02:42:32.417Z,95.85
2022-08-11T02:45:37.065Z,96.21
2022-08-11T02:48:43.388Z,96.53
2022-08-11T02:51:22.919Z,97.33
2022-08-11T02:54:06.105Z,97.58
2022-08-11T02:56:45.161Z,97.98
2022-08-11T02:59:53.899Z,98.64
2022-08-11T03:02:53.449Z,99.32
2022-08-11T03:05:41.530Z,99.90
2022-08-11T03:08:19.802Z,100.00
2022-08-11T03:11:16.378Z,100.00
2022-08-11T03:14:23.690Z,100.00
2022-08-11T03:16:56.766Z,100.00
2022-08-11T03:19:35.703Z,100.00
2022-08-11T03:22:10.940Z,100.00
2022-08-11T03:24:54.986Z,100.00
2022-08-11T03:27:35.690Z,100.00
2022-08-11T03:30:09.982Z,100.00
2022-08-11T03:33:07.495Z,100.00
2022-08-11T03:35:43.178Z,100.00
2022-08-11T03:38:16.022Z,100.00
2022-08-11T03:42:02.490Z,100.00
2022-08-11T03:44:27.990Z,100.00
2022-08-11T03:47:11.932Z,100.00
2022-08-11T03:49:56.192Z,100.00
2022-08-11T03:52:35.298Z,100.00
2022-08-11T03:55:15.817Z,99.41
2022-08-11T03:58:18.769Z,99.07
2022-08-11T04:01:17.513Z,98.54
2022-08-11T04:04:16.508Z,97.29
2022-08-11T04:07:03.768Z,93.56
2022-08-11T04:10:07.770Z,81.96
2022-08-11T04:13:10.688Z,77.35
2022-08-11T04:16:11.429Z,76.69
2022-08-11T04:19:28.077Z,73.60
2022-08-11T04:22:35.325Z,61.57
2022-08-11T04:25:25.476Z,56.07
2022-08-11T04:28:42.877Z,51.28
2022-08-11T04:31:50.948Z,46.79
2022-08-11T04:34:38.451Z,44.05
2022-08-11T04:37:57.924Z,42.90
2022-08-11T04:41:19.648Z,40.34
2022-08-11T04:44:31.917Z,40.53
2022-08-11T04:48:03.922Z,40.50
2022-08-11T04:51:08.876Z,38.05
2022-08-11T04:54:30.850Z,35.41
2022-08-11T04:57:24.872Z,35.48
2022-08-11T05:00:24.904Z,34.04
2022-08-11T05:03:36.686Z,33.04
2022-08-11T05:06:33.868Z,35.26
2022-08-11T05:09:19.103Z,34.71
2022-08-11T05:12:31.177Z,32.94
2022-08-11T05:15:18.557Z,32.08
2022-08-11T05:18:14.649Z,32.94
2022-08-11T05:21:08.158Z,31.59
2022-08-11T05:23:58.978Z,33.57
2022-08-11T05:26:49.339Z,33.64
2022-08-11T05:29:46.548Z,32.59
2022-08-11T05:32:36.255Z,32.96
2022-08-11T05:35:08.041Z,33.66
2022-08-11T05:38:03.597Z,34.70
2022-08-11T05:40:51.169Z,34.22
2022-08-11T05:43:39.839Z,33.00
2022-08-11T05:46:46.693Z,37.18
2022-08-11T05:49:33.065Z,40.28
2022-08-11T05:52:21.583Z,37.65
2022-08-11T05:55:23.968Z,38.58
2022-08-11T05:57:57.698Z,38.67
2022-08-11T06:00:26.987Z,35.69
2022-08-11T06:03:00.079Z,35.69
2022-08-11T06:05:38.479Z,37.65
2022-08-11T06:08:13.925Z,37.43
2022-08-11T06:10:45.894Z,38.62
2022-08-11T06:13:17.621Z,40.67
2022-08-11T06:15:47.640Z,41.17
2022-08-11T06:18:16.493Z,39.41
2022-08-11T06:20:49.273Z,38.32
2022-08-11T06:23:20.648Z,42.24
2022-08-11T06:25:51.905Z,41.47
2022-08-11T06:28:23.006Z,41.54
2022-08-11T06:30:52.155Z,41.28
2022-08-11T06:33:30.966Z,40.81
2022-08-11T06:36:05.202Z,40.54
2022-08-11T06:38:59.876Z,41.81
2022-08-11T06:41:39.429Z,41.51
2022-08-11T06:44:22.897Z,39.62
2022-08-11T06:46:53.370Z,38.58
2022-08-11T06:49:41.440Z,39.47
2022-08-11T06:52:34.479Z,40.56
2022-08-11T06:55:55.706Z,40.06
2022-08-11T06:58:16.758Z,38.36
2022-08-11T07:00:47.346Z,37.37
2022-08-11T07:03:20.347Z,37.07
2022-08-11T07:05:53.638Z,38.26
2022-08-11T07:09:04.589Z,40.04
2022-08-11T07:12:40.332Z,40.59
2022-08-11T07:16:11.202Z,39.78
2022-08-11T07:18:43.719Z,38.88
2022-08-11T07:22:00.583Z,39.20
2022-08-11T07:24:58.548Z,38.87
2022-08-11T07:27:50.276Z,38.99
2022-08-11T07:30:19.885Z,39.58
2022-08-11T07:32:54.078Z,39.59
2022-08-11T07:35:28.678Z,39.26
2022-08-11T07:38:02.313Z,38.27
2022-08-11T07:40:31.951Z,38.84
2022-08-11T07:43:02.572Z,39.61
2022-08-11T07:45:47.592Z,40.60
2022-08-11T07:48:34.601Z,40.69
2022-08-11T07:51:20.770Z,39.89
2022-08-11T07:53:57.926Z,39.39
2022-08-11T07:56:54.221Z,39.17
2022-08-11T08:00:03.627Z,39.86
2022-08-11T08:02:49.937Z,38.76
2022-08-11T08:05:37.637Z,37.53
2022-08-11T08:08:25.643Z,38.58
2022-08-11T08:11:13.423Z,40.09
2022-08-11T08:13:59.778Z,39.90
2022-08-11T08:16:45.819Z,40.61
2022-08-11T08:19:17.266Z,39.96
2022-08-11T08:21:46.488Z,40.24
2022-08-11T08:24:15.917Z,39.89
2022-08-11T08:26:59.694Z,41.21
2022-08-11T08:29:47.417Z,40.26
2022-08-11T08:32:18.131Z,41.31
2022-08-11T08:34:48.657Z,40.63
2022-08-11T08:37:46.333Z,40.58
2022-08-11T08:40:10.526Z,40.02
2022-08-11T08:42:45.268Z,40.36
2022-08-11T08:45:18.513Z,40.42
2022-08-11T08:47:53.644Z,41.18
2022-08-11T08:50:46.828Z,41.08
2022-08-11T08:53:17.566Z,41.40
2022-08-11T08:55:47.610Z,41.22
2022-08-11T08:58:17.623Z,42.53
2022-08-11T09:00:47.602Z,42.16
2022-08-11T09:03:40.629Z,42.30
2022-08-11T09:06:06.047Z,42.66
2022-08-11T09:08:36.440Z,42.49
2022-08-11T09:11:23.888Z,43.16
2022-08-11T09:14:05.717Z,42.05
2022-08-11T09:16:36.733Z,41.88
2022-08-11T09:19:05.802Z,40.59
2022-08-11T09:21:46.387Z,40.04
2022-08-11T09:24:36.294Z,39.49
2022-08-11T09:27:07.858Z,37.59
2022-08-11T09:29:38.880Z,36.86
2022-08-11T09:32:09.109Z,36.63
2022-08-11T09:34:40.073Z,36.71
2022-08-11T09:37:53.279Z,35.52
2022-08-11T09:40:33.778Z,34.03
2022-08-11T09:43:24.051Z,34.04
2022-08-11T09:45:54.261Z,32.51
2022-08-11T09:48:24.897Z,33.19
2022-08-11T09:51:00.070Z,33.15
2022-08-11T09:53:36.020Z,33.40
2022-08-11T09:56:30.194Z,33.66
2022-08-11T09:58:59.356Z,35.52
2022-08-11T10:01:34.797Z,35.57
2022-08-11T10:04:08.439Z,35.65
2022-08-11T10:06:57.406Z,36.88
2022-08-11T10:09:28.370Z,36.10
2022-08-11T10:11:59.448Z,36.76
2022-08-11T10:14:47.913Z,36.15
2022-08-11T10:17:20.011Z,36.68
2022-08-11T10:20:05.397Z,37.23
2022-08-11T10:22:53.146Z,37.26
2022-08-11T10:25:41.429Z,37.14
2022-08-11T10:28:30.799Z,36.73
2022-08-11T10:31:18.482Z,36.18
2022-08-11T10:34:04.010Z,35.99
2022-08-11T10:36:34.865Z,35.29
2022-08-11T10:39:06.309Z,33.98
2022-08-11T10:42:07.249Z,34.83
2022-08-11T10:44:39.823Z,33.36
2022-08-11T10:47:26.272Z,33.83
2022-08-11T10:50:09.335Z,33.37
2022-08-11T10:52:56.097Z,33.06
2022-08-11T10:55:42.924Z,31.18
2022-08-11T10:58:30.713Z,31.65
2022-08-11T11:01:00.878Z,31.21
2022-08-11T11:03:32.377Z,31.22
2022-08-11T11:06:28.790Z,31.84
2022-08-11T11:09:05.439Z,31.49
2022-08-11T11:11:56.214Z,32.24
2022-08-11T11:14:50.701Z,33.35
2022-08-11T11:17:54.025Z,32.99
2022-08-11T11:20:37.990Z,30.63
2022-08-11T11:23:11.433Z,30.54
2022-08-11T11:26:14.800Z,28.70
2022-08-11T11:29:13.488Z,29.40
2022-08-11T11:32:18.156Z,29.94
2022-08-11T11:35:23.970Z,29.03
2022-08-11T11:38:00.035Z,29.78
2022-08-11T11:40:33.846Z,28.99
2022-08-11T11:43:02.826Z,29.75
2022-08-11T11:45:31.368Z,28.42
2022-08-11T11:48:02.447Z,28.06
2022-08-11T11:50:34.642Z,29.68
2022-08-11T11:53:05.042Z,30.08
2022-08-11T11:55:33.469Z,30.07
2022-08-11T11:58:22.201Z,30.55
2022-08-11T12:01:09.485Z,30.75
2022-08-11T12:03:40.857Z,31.08
2022-08-11T12:06:12.288Z,31.88
2022-08-11T12:08:40.791Z,31.26
2022-08-11T12:11:30.180Z,31.66
2022-08-11T12:14:00.703Z,31.65
2022-08-11T12:16:34.221Z,31.91
2022-08-11T12:19:09.030Z,31.71
2022-08-11T12:21:38.479Z,31.12
2022-08-11T12:24:28.448Z,30.92
2022-08-11T12:27:17.723Z,30.67
2022-08-11T12:29:54.530Z,31.38
2022-08-11T12:32:25.560Z,31.82
2022-08-11T12:34:56.976Z,31.49
2022-08-11T12:37:30.460Z,31.25
2022-08-11T12:40:43.054Z,31.10
2022-08-11T12:43:37.209Z,30.45
2022-08-11T12:46:11.737Z,31.11
2022-08-11T12:49:03.949Z,30.62
2022-08-11T12:52:13.815Z,31.45
2022-08-11T12:54:51.885Z,31.01
2022-08-11T12:57:47.716Z,30.88
2022-08-11T13:00:35.696Z,31.12
2022-08-11T13:03:24.078Z,31.16
2022-08-11T13:05:55.731Z,31.02
2022-08-11T13:08:26.652Z,31.24
2022-08-11T13:11:14.194Z,31.38
2022-08-11T13:13:54.949Z,32.34
2022-08-11T13:16:27.087Z,32.07
2022-08-11T13:18:56.896Z,31.85
2022-08-11T13:21:25.945Z,31.85
2022-08-11T13:24:00.318Z,32.19
2022-08-11T13:26:47.740Z,32.52
2022-08-11T13:29:24.605Z,32.25
2022-08-11T13:31:53.571Z,32.08
2022-08-11T13:34:23.169Z,32.11
2022-08-11T13:36:53.423Z,32.57
2022-08-11T13:39:26.300Z,33.50
2022-08-11T13:41:57.104Z,34.60
2022-08-11T13:44:28.561Z,33.71
2022-08-11T13:47:01.499Z,34.33
2022-08-11T13:49:31.819Z,34.83
2022-08-11T13:52:00.510Z,35.22
2022-08-11T13:54:33.431Z,35.04
2022-08-11T13:57:08.310Z,35.22
2022-08-11T13:59:51.861Z,35.37
2022-08-11T14:02:29.452Z,36.33
2022-08-11T14:05:00.531Z,36.11
2022-08-11T14:07:35.932Z,36.71
2022-08-11T14:10:08.539Z,36.12
2022-08-11T14:12:57.046Z,36.00
2022-08-11T14:15:30.081Z,36.68
2022-08-11T14:18:01.804Z,36.43
2022-08-11T14:20:53.200Z,35.71
2022-08-11T14:23:27.128Z,35.87
2022-08-11T14:26:15.440Z,35.66
2022-08-11T14:28:45.390Z,36.01
2022-08-11T14:31:15.890Z,36.46
2022-08-11T14:33:58.633Z,36.70
2022-08-11T14:36:33.131Z,35.52
2022-08-11T14:39:04.608Z,35.91
2022-08-11T14:42:10.425Z,35.82
2022-08-11T14:45:06.203Z,35.61
2022-08-11T14:47:37.634Z,35.12
2022-08-11T14:50:11.026Z,35.32
2022-08-11T14:52:44.486Z,35.16
2022-08-11T14:55:31.878Z,35.47
2022-08-11T14:58:02.996Z,35.33
2022-08-11T15:00:33.146Z,34.99
2022-08-11T15:03:13.885Z,35.43
2022-08-11T15:05:56.055Z,35.11
2022-08-11T15:08:48.558Z,35.59
2022-08-11T15:11:36.517Z,35.68
2022-08-11T15:14:09.686Z,35.61
2022-08-11T15:16:56.393Z,36.14
2022-08-11T15:19:40.558Z,36.22
2022-08-11T15:22:28.411Z,36.37
2022-08-11T15:24:58.372Z,35.50
2022-08-11T15:28:00.198Z,36.01
2022-08-11T15:30:49.377Z,35.65
2022-08-11T15:33:38.639Z,35.40
2022-08-11T15:36:27.697Z,35.56
2022-08-11T15:39:01.179Z,35.80
2022-08-11T15:41:58.261Z,35.87
2022-08-11T15:45:02.221Z,36.41
2022-08-11T15:47:41.679Z,36.61
2022-08-11T15:50:15.226Z,35.95
2022-08-11T15:52:51.131Z,36.68
2022-08-11T15:55:21.084Z,36.54
2022-08-11T15:58:08.752Z,37.23
2022-08-11T16:01:03.689Z,37.03
2022-08-11T16:04:07.602Z,36.69
2022-08-11T16:06:44.078Z,37.42
2022-08-11T16:09:21.939Z,37.45
2022-08-11T16:11:51.644Z,37.74
2022-08-11T16:14:39.421Z,37.18
2022-08-11T16:17:11.485Z,37.45
2022-08-11T16:19:42.420Z,38.26
2022-08-11T16:22:13.415Z,38.97
2022-08-11T16:27:06.894Z,39.70
2022-08-11T16:27:38.705Z,39.91
2022-08-11T16:30:08.507Z,40.54
2022-08-11T16:32:40.796Z,40.95
2022-08-11T16:35:30.201Z,41.26
2022-08-11T16:38:17.215Z,41.90
2022-08-11T16:40:46.102Z,42.35
2022-08-11T16:43:35.892Z,42.13
2022-08-11T16:46:33.114Z,42.37
2022-08-11T16:49:03.577Z,42.76
2022-08-11T16:51:33.995Z,42.78
2022-08-11T16:54:04.640Z,42.26
2022-08-11T16:56:39.100Z,42.83
2022-08-11T16:59:17.120Z,42.96
2022-08-11T17:01:50.151Z,43.59
2022-08-11T17:04:44.023Z,43.88
2022-08-11T17:07:42.526Z,43.59
2022-08-11T17:10:53.242Z,43.85
2022-08-11T17:13:29.393Z,44.04
2022-08-11T17:16:08.042Z,44.62
2022-08-11T17:18:43.315Z,45.03
2022-08-11T17:21:17.323Z,45.59
2022-08-11T17:23:50.441Z,46.11
2022-08-11T17:26:22.041Z,49.59
2022-08-11T17:28:52.818Z,51.39
2022-08-11T17:31:40.218Z,53.38
2022-08-11T17:34:26.386Z,56.50
2022-08-11T17:36:56.290Z,58.56
2022-08-11T17:39:30.352Z,59.89
2022-08-11T17:42:17.127Z,61.01
2022-08-11T17:45:03.799Z,61.26
2022-08-11T17:47:51.444Z,61.29
2022-08-11T17:50:21.167Z,62.45
2022-08-11T17:53:07.682Z,63.36
2022-08-11T17:55:57.859Z,64.22
2022-08-11T17:58:44.604Z,65.30
2022-08-11T18:01:15.289Z,66.57
2022-08-11T18:03:53.226Z,67.99
2022-08-11T18:06:34.288Z,68.87
2022-08-11T18:09:22.673Z,69.68
2022-08-11T18:12:12.974Z,69.99
2022-08-11T18:15:00.561Z,71.07
2022-08-11T18:17:45.978Z,71.93
2022-08-11T18:20:31.463Z,71.72
2022-08-11T18:23:19.625Z,72.57
2022-08-11T18:26:07.762Z,72.89
2022-08-11T18:29:02.304Z,73.29
2022-08-11T18:31:51.859Z,72.78
2022-08-11T18:34:48.241Z,73.06
2022-08-11T18:37:38.253Z,73.08
2022-08-11T18:40:29.780Z,73.76
2022-08-11T18:43:21.788Z,74.54
2022-08-11T18:46:15.383Z,73.58
2022-08-11T18:49:11.849Z,73.33
2022-08-11T18:52:03.410Z,73.78
2022-08-11T18:54:53.229Z,73.68
2022-08-11T18:57:49.628Z,73.34
2022-08-11T19:00:40.878Z,73.40
2022-08-11T19:03:29.881Z,73.86
2022-08-11T19:06:38.344Z,74.26
2022-08-11T19:09:27.498Z,73.66
2022-08-11T19:12:14.588Z,73.35
2022-08-11T19:15:01.540Z,74.15
2022-08-11T19:17:50.190Z,74.01
2022-08-11T19:20:40.385Z,73.21
2022-08-11T19:23:28.555Z,73.26
2022-08-11T19:26:15.532Z,73.25
2022-08-11T19:29:03.972Z,73.15
2022-08-11T19:31:50.512Z,72.40
2022-08-11T19:34:39.688Z,72.85
2022-08-11T19:37:28.825Z,72.95
2022-08-11T19:40:21.951Z,72.01
2022-08-11T19:43:11.224Z,71.41
2022-08-11T19:46:17.255Z,70.91
2022-08-11T19:49:04.782Z,70.97
2022-08-11T19:51:53.858Z,70.18
2022-08-11T19:54:43.519Z,70.61
2022-08-11T19:57:30.040Z,70.85
2022-08-11T20:00:17.081Z,70.61
2022-08-11T20:03:07.264Z,71.57
2022-08-11T20:05:59.844Z,71.87
2022-08-11T20:08:48.098Z,72.18
2022-08-11T20:11:36.840Z,72.46
2022-08-11T20:14:24.897Z,72.84
2022-08-11T20:17:12.026Z,73.65
2022-08-11T20:22:49.781Z,74.56
2022-08-11T20:25:36.716Z,74.66
2022-08-11T20:28:25.514Z,75.10
2022-08-11T20:31:12.871Z,75.63
2022-08-11T20:34:01.039Z,75.83
2022-08-11T20:36:54.047Z,76.35
2022-08-11T20:39:42.011Z,77.02
2022-08-11T20:42:30.682Z,76.72
2022-08-11T20:45:23.311Z,77.73
2022-08-11T20:48:14.683Z,78.29
2022-08-11T20:51:06.231Z,78.20
2022-08-11T20:53:56.593Z,78.64
2022-08-11T20:56:44.305Z,79.42
2022-08-11T20:59:33.382Z,79.08
2022-08-11T21:02:27.586Z,79.97
2022-08-11T21:05:15.885Z,81.12
2022-08-11T21:08:25.585Z,81.56
2022-08-11T21:11:14.052Z,82.45
2022-08-11T21:14:13.834Z,82.76
2022-08-11T21:17:04.434Z,83.89
2022-08-11T21:20:18.407Z,83.77
2022-08-11T21:23:10.013Z,83.25
2022-08-11T21:26:04.186Z,82.64
2022-08-11T21:28:50.893Z,83.18
2022-08-11T21:31:38.903Z,83.39
2022-08-11T21:34:27.216Z,83.63
2022-08-11T21:37:15.172Z,83.45
2022-08-11T21:40:02.353Z,84.16
2022-08-11T21:42:50.944Z,84.26
2022-08-11T21:45:37.985Z,84.51
2022-08-11T21:48:25.472Z,84.14
2022-08-11T21:51:11.057Z,84.08
2022-08-11T21:53:58.855Z,83.66
2022-08-11T21:56:45.880Z,83.77
2022-08-11T21:59:35.444Z,82.78
2022-08-11T22:02:21.657Z,82.98
2022-08-11T22:05:07.686Z,82.32
2022-08-11T22:07:53.283Z,82.59
2022-08-11T22:10:42.990Z,83.28
2022-08-11T22:13:30.047Z,84.23
2022-08-11T22:16:16.070Z,84.27
2022-08-11T22:19:02.247Z,85.05
2022-08-11T22:22:01.727Z,85.76
2022-08-11T22:24:51.582Z,84.80
2022-08-11T22:27:38.645Z,84.30
2022-08-11T22:30:25.433Z,83.83
2022-08-11T22:33:11.944Z,83.72
2022-08-11T22:36:01.957Z,83.38
2022-08-11T22:38:47.923Z,83.73
2022-08-11T22:41:33.340Z,83.36
2022-08-11T22:44:20.451Z,83.78
2022-08-11T22:47:08.013Z,84.59
2022-08-11T22:49:57.571Z,84.64
2022-08-11T22:52:44.341Z,85.06
2022-08-11T22:55:29.822Z,84.97
2022-08-11T22:58:15.990Z,85.82
2022-08-11T23:01:03.434Z,86.11
2022-08-11T23:03:50.997Z,86.84
2022-08-11T23:06:38.129Z,87.57
2022-08-11T23:09:24.089Z,88.43
2022-08-11T23:12:10.598Z,88.24
2022-08-11T23:14:59.928Z,88.43
2022-08-11T23:17:46.897Z,89.06
2022-08-11T23:20:36.155Z,89.42
2022-08-11T23:23:27.754Z,89.77
2022-08-11T23:26:14.826Z,89.04
2022-08-11T23:29:05.831Z,88.92
2022-08-11T23:31:53.587Z,89.12
2022-08-11T23:35:04.614Z,89.79
2022-08-11T23:37:49.014Z,89.65
2022-08-11T23:40:34.506Z,90.65
2022-08-11T23:43:20.637Z,90.30
2022-08-11T23:46:06.224Z,91.42
2022-08-11T23:48:52.878Z,92.56
2022-08-11T23:51:41.623Z,92.00
2022-08-11T23:54:27.619Z,91.58
2022-08-11T23:57:14.368Z,91.62
2022-08-11T23:59:59.858Z,92.18
